createdAt,value
2022-09-01T00:00:56.751Z,994.04
2022-09-01T00:01:58.472Z,994.09
2022-09-01T00:03:01.357Z,994.06
2022-09-01T00:04:02.064Z,994.02
2022-09-01T00:05:03.647Z,994.08
2022-09-01T00:06:05.374Z,994.08
2022-09-01T00:07:07.107Z,994.1
2022-09-01T00:08:08.832Z,994.06
2022-09-01T00:09:10.750Z,994.06
2022-09-01T00:10:12.266Z,994.05
2022-09-01T00:11:13.998Z,994.05
2022-09-01T00:12:15.729Z,994.06
2022-09-01T00:13:17.459Z,994.09
2022-09-01T00:14:29.692Z,994.04
2022-09-01T00:15:20.898Z,994.12
2022-09-01T00:16:22.715Z,994.1
2022-09-01T00:17:24.359Z,994.07
2022-09-01T00:18:26.088Z,994.11
2022-09-01T00:19:12.571Z,994.08
2022-09-01T00:20:18.216Z,994.09
2022-09-01T00:21:15.837Z,994.13
2022-09-01T00:22:17.562Z,994.1
2022-09-01T00:23:19.284Z,994.13
2022-09-01T00:24:21.006Z,994.11
2022-09-01T00:25:22.719Z,994.11
2022-09-01T00:26:24.456Z,994.12
2022-09-01T00:27:30.650Z,994.1
2022-09-01T00:28:29.241Z,994.11
2022-09-01T00:29:29.635Z,994.09
2022-09-01T00:30:31.390Z,994.11
2022-09-01T00:31:33.215Z,994.08
2022-09-01T00:32:34.813Z,994.01
2022-09-01T00:33:36.537Z,994.08
2022-09-01T00:34:38.265Z,994.03
2022-09-01T00:35:39.974Z,994.06
2022-09-01T00:36:41.702Z,994.03
2022-09-01T00:37:43.434Z,994
2022-09-01T00:38:45.158Z,993.96
2022-09-01T00:39:46.880Z,994.02
2022-09-01T00:40:48.694Z,994.02
2022-09-01T00:41:50.359Z,994.02
2022-09-01T00:42:52.122Z,994.01
2022-09-01T00:43:53.783Z,993.98
2022-09-01T00:44:55.513Z,993.96
2022-09-01T00:45:57.321Z,993.93
2022-09-01T00:46:59.711Z,993.91
2022-09-01T00:48:00.773Z,993.91
2022-09-01T00:49:02.414Z,993.95
2022-09-01T00:50:04.294Z,993.9
2022-09-01T00:51:05.898Z,993.9
2022-09-01T00:52:07.793Z,993.91
2022-09-01T00:53:09.314Z,993.93
2022-09-01T00:54:11.026Z,993.92
2022-09-01T00:55:12.764Z,993.92
2022-09-01T00:56:14.482Z,993.9
2022-09-01T00:57:16.213Z,993.95
2022-09-01T00:58:19.463Z,993.88
2022-09-01T00:59:19.712Z,993.88
2022-09-01T01:00:21.397Z,993.9
2022-09-01T01:01:23.134Z,993.93
2022-09-01T01:02:24.956Z,993.92
2022-09-01T01:03:26.563Z,993.9
2022-09-01T01:04:28.288Z,993.88
2022-09-01T01:05:30.019Z,993.89
2022-09-01T01:06:32.244Z,993.88
2022-09-01T01:07:33.664Z,993.87
2022-09-01T01:08:35.184Z,993.87
2022-09-01T01:09:36.921Z,993.86
2022-09-01T01:10:38.664Z,993.81
2022-09-01T01:11:40.360Z,993.76
2022-09-01T01:12:42.089Z,993.8
2022-09-01T01:13:43.810Z,993.85
2022-09-01T01:14:46.021Z,993.79
2022-09-01T01:15:47.273Z,993.85
2022-09-01T01:16:49.066Z,993.87
2022-09-01T01:17:50.719Z,993.87
2022-09-01T01:18:52.439Z,993.83
2022-09-01T01:19:54.178Z,993.86
2022-09-01T01:20:55.881Z,993.84
2022-09-01T01:21:57.724Z,993.88
2022-09-01T01:22:59.345Z,993.83
2022-09-01T01:24:01.077Z,993.86
2022-09-01T01:25:02.833Z,993.83
2022-09-01T01:26:04.547Z,993.82
2022-09-01T01:27:06.271Z,993.79
2022-09-01T01:28:08.103Z,993.79
2022-09-01T01:29:09.692Z,993.76
2022-09-01T01:30:11.418Z,993.81
2022-09-01T01:31:13.244Z,993.77
2022-09-01T01:32:14.870Z,993.8
2022-09-01T01:33:16.626Z,993.76
2022-09-01T01:34:18.323Z,993.78
2022-09-01T01:35:20.051Z,993.79
2022-09-01T01:36:21.777Z,993.77
2022-09-01T01:37:23.521Z,993.78
2022-09-01T01:38:25.220Z,993.77
2022-09-01T01:39:26.947Z,993.81
2022-09-01T01:40:28.724Z,993.81
2022-09-01T01:41:30.398Z,993.81
2022-09-01T01:42:32.178Z,993.85
2022-09-01T01:43:33.889Z,993.81
2022-09-01T01:44:35.582Z,993.86
2022-09-01T01:45:37.348Z,993.78
2022-09-01T01:46:39.027Z,993.75
2022-09-01T01:47:40.793Z,993.85
2022-09-01T01:48:42.484Z,993.85
2022-09-01T01:49:44.215Z,993.8
2022-09-01T01:50:45.927Z,993.82
2022-09-01T01:51:47.650Z,993.83
2022-09-01T01:52:49.387Z,993.8
2022-09-01T01:53:51.103Z,993.86
2022-09-01T01:54:52.845Z,993.83
2022-09-01T01:55:54.565Z,993.85
2022-09-01T01:56:56.276Z,993.9
2022-09-01T01:57:58.007Z,993.84
2022-09-01T01:58:59.720Z,993.9
2022-09-01T02:00:01.469Z,993.9
2022-09-01T02:01:08.234Z,993.92
2022-09-01T02:02:04.997Z,993.9
2022-09-01T02:03:06.675Z,993.88
2022-09-01T02:04:08.393Z,993.92
2022-09-01T02:05:10.105Z,993.87
2022-09-01T02:06:11.826Z,993.88
2022-09-01T02:07:13.669Z,993.84
2022-09-01T02:08:15.281Z,993.86
2022-09-01T02:09:17.018Z,993.84
2022-09-01T02:10:18.745Z,993.85
2022-09-01T02:11:20.664Z,993.85
2022-09-01T02:12:22.152Z,993.85
2022-09-01T02:13:23.880Z,993.84
2022-09-01T02:14:25.602Z,993.85
2022-09-01T02:15:27.326Z,993.8
2022-09-01T02:16:29.122Z,993.82
2022-09-01T02:17:30.801Z,993.81
2022-09-01T02:18:32.507Z,993.83
2022-09-01T02:19:34.229Z,993.84
2022-09-01T02:20:35.977Z,993.81
2022-09-01T02:21:37.696Z,993.77
2022-09-01T02:22:39.411Z,993.76
2022-09-01T02:23:41.145Z,993.8
2022-09-01T02:24:42.862Z,993.8
2022-09-01T02:26:13.933Z,993.78
2022-09-01T02:26:46.318Z,993.78
2022-09-01T02:27:48.049Z,993.74
2022-09-01T02:28:54.630Z,993.76
2022-09-01T02:29:51.485Z,993.74
2022-09-01T02:30:53.315Z,993.75
2022-09-01T02:31:55.137Z,993.74
2022-09-01T02:32:56.697Z,993.76
2022-09-01T02:33:58.411Z,993.76
2022-09-01T02:35:00.176Z,993.77
2022-09-01T02:36:01.871Z,993.75
2022-09-01T02:37:03.594Z,993.72
2022-09-01T02:38:05.324Z,993.72
2022-09-01T02:39:08.118Z,993.77
2022-09-01T02:40:10.131Z,993.73
2022-09-01T02:41:10.506Z,993.7
2022-09-01T02:42:12.265Z,993.72
2022-09-01T02:43:13.969Z,993.74
2022-09-01T02:44:15.735Z,993.72
2022-09-01T02:45:17.425Z,993.69
2022-09-01T02:46:19.212Z,993.71
2022-09-01T02:47:20.848Z,993.74
2022-09-01T02:48:22.575Z,993.73
2022-09-01T02:49:24.307Z,993.73
2022-09-01T02:50:26.039Z,993.7
2022-09-01T02:51:27.752Z,993.7
2022-09-01T02:52:29.463Z,993.66
2022-09-01T02:53:31.168Z,993.67
2022-09-01T02:54:33.023Z,993.64
2022-09-01T02:55:34.619Z,993.6
2022-09-01T02:56:36.351Z,993.62
2022-09-01T02:57:38.113Z,993.65
2022-09-01T02:58:39.800Z,993.66
2022-09-01T02:59:43.825Z,993.67
2022-09-01T03:00:43.501Z,993.62
2022-09-01T03:01:44.976Z,993.66
2022-09-01T03:02:46.700Z,993.65
2022-09-01T03:03:48.421Z,993.64
2022-09-01T03:04:50.246Z,993.61
2022-09-01T03:05:51.886Z,993.66
2022-09-01T03:06:53.635Z,993.62
2022-09-01T03:07:55.339Z,993.62
2022-09-01T03:08:57.126Z,993.57
2022-09-01T03:09:58.782Z,993.58
2022-09-01T03:11:00.498Z,993.6
2022-09-01T03:12:02.228Z,993.6
2022-09-01T03:13:04.010Z,993.62
2022-09-01T03:14:05.680Z,993.58
2022-09-01T03:15:07.405Z,993.6
2022-09-01T03:16:09.226Z,993.63
2022-09-01T03:17:10.850Z,993.6
2022-09-01T03:18:12.646Z,993.61
2022-09-01T03:19:14.312Z,993.56
2022-09-01T03:20:16.031Z,993.62
2022-09-01T03:21:17.760Z,993.65
2022-09-01T03:22:19.493Z,993.61
2022-09-01T03:23:21.213Z,993.58
2022-09-01T03:24:22.935Z,993.6
2022-09-01T03:25:24.655Z,993.63
2022-09-01T03:26:26.392Z,993.62
2022-09-01T03:27:28.116Z,993.57
2022-09-01T03:28:29.837Z,993.61
2022-09-01T03:29:31.561Z,993.58
2022-09-01T03:30:33.320Z,993.57
2022-09-01T03:31:35.047Z,993.59
2022-09-01T03:32:36.740Z,993.58
2022-09-01T03:33:38.466Z,993.61
2022-09-01T03:34:40.184Z,993.58
2022-09-01T03:35:41.915Z,993.65
2022-09-01T03:36:43.656Z,993.61
2022-09-01T03:37:45.365Z,993.67
2022-09-01T03:38:47.084Z,993.65
2022-09-01T03:39:48.819Z,993.61
2022-09-01T03:40:50.545Z,993.61
2022-09-01T03:41:52.261Z,993.6
2022-09-01T03:42:53.981Z,993.6
2022-09-01T03:43:55.708Z,993.65
2022-09-01T03:44:57.459Z,993.62
2022-09-01T03:45:59.388Z,993.58
2022-09-01T03:47:01.118Z,993.63
2022-09-01T03:48:02.612Z,993.61
2022-09-01T03:49:04.340Z,993.62
2022-09-01T03:50:06.286Z,993.67
2022-09-01T03:51:07.805Z,993.66
2022-09-01T03:52:09.517Z,993.64
2022-09-01T03:53:11.234Z,993.64
2022-09-01T03:54:12.975Z,993.65
2022-09-01T03:55:14.700Z,993.61
2022-09-01T03:56:16.415Z,993.69
2022-09-01T03:57:18.146Z,993.69
2022-09-01T03:58:19.879Z,993.68
2022-09-01T03:59:21.588Z,993.68
2022-09-01T04:00:23.350Z,993.61
2022-09-01T04:01:25.223Z,993.7
2022-09-01T04:02:26.888Z,993.69
2022-09-01T04:03:31.058Z,993.7
2022-09-01T04:04:30.213Z,993.71
2022-09-01T04:05:31.946Z,993.71
2022-09-01T04:06:33.680Z,993.68
2022-09-01T04:07:35.392Z,993.71
2022-09-01T04:08:37.117Z,993.72
2022-09-01T04:09:38.853Z,993.67
2022-09-01T04:10:40.695Z,993.73
2022-09-01T04:11:45.825Z,993.74
2022-09-01T04:12:44.018Z,993.72
2022-09-01T04:13:45.742Z,993.69
2022-09-01T04:14:47.473Z,993.73
2022-09-01T04:15:49.198Z,993.67
2022-09-01T04:16:51.043Z,993.65
2022-09-01T04:17:52.651Z,993.69
2022-09-01T04:18:55.715Z,993.73
2022-09-01T04:19:56.107Z,993.7
2022-09-01T04:20:57.827Z,993.72
2022-09-01T04:21:59.548Z,993.75
2022-09-01T04:23:01.360Z,993.73
2022-09-01T04:24:03.176Z,993.71
2022-09-01T04:25:04.727Z,993.71
2022-09-01T04:26:06.604Z,993.72
2022-09-01T04:27:08.181Z,993.68
2022-09-01T04:28:09.952Z,993.69
2022-09-01T04:29:11.629Z,993.71
2022-09-01T04:30:13.360Z,993.71
2022-09-01T04:31:15.182Z,993.71
2022-09-01T04:32:16.805Z,993.72
2022-09-01T04:33:18.542Z,993.73
2022-09-01T04:34:20.261Z,993.72
2022-09-01T04:35:21.980Z,993.7
2022-09-01T04:36:23.726Z,993.75
2022-09-01T04:37:25.419Z,993.69
2022-09-01T04:38:27.179Z,993.72
2022-09-01T04:39:28.889Z,993.69
2022-09-01T04:40:30.669Z,993.71
2022-09-01T04:41:33.746Z,993.66
2022-09-01T04:42:34.072Z,993.69
2022-09-01T04:43:35.778Z,993.68
2022-09-01T04:44:37.504Z,993.69
2022-09-01T04:45:39.294Z,993.67
2022-09-01T04:46:40.960Z,993.7
2022-09-01T04:47:42.693Z,993.73
2022-09-01T04:48:44.411Z,993.7
2022-09-01T04:48:59.898Z,993.72
2022-09-01T04:50:01.601Z,993.68
2022-09-01T04:51:04.309Z,993.67
2022-09-01T04:52:05.020Z,993.72
2022-09-01T04:53:06.770Z,993.71
2022-09-01T04:54:08.481Z,993.69
2022-09-01T04:55:10.183Z,993.64
2022-09-01T04:56:11.919Z,993.67
2022-09-01T04:57:13.653Z,993.72
2022-09-01T04:58:15.378Z,993.68
2022-09-01T04:59:17.121Z,993.67
2022-09-01T05:00:18.829Z,993.69
2022-09-01T05:01:20.687Z,993.72
2022-09-01T05:02:22.324Z,993.73
2022-09-01T05:03:24.150Z,993.7
2022-09-01T05:04:25.726Z,993.72
2022-09-01T05:05:27.461Z,993.74
2022-09-01T05:06:29.181Z,993.73
2022-09-01T05:07:30.902Z,993.73
2022-09-01T05:08:32.892Z,993.73
2022-09-01T05:09:34.384Z,993.73
2022-09-01T05:10:36.082Z,993.73
2022-09-01T05:11:37.808Z,993.78
2022-09-01T05:12:39.528Z,993.82
2022-09-01T05:13:41.240Z,993.75
2022-09-01T05:14:42.982Z,993.8
2022-09-01T05:15:44.720Z,993.77
2022-09-01T05:16:46.539Z,993.79
2022-09-01T05:17:48.159Z,993.82
2022-09-01T05:18:49.931Z,993.77
2022-09-01T05:19:51.597Z,993.7
2022-09-01T05:20:53.327Z,993.71
2022-09-01T05:21:55.112Z,993.76
2022-09-01T05:22:56.806Z,993.75
2022-09-01T05:23:58.726Z,993.74
2022-09-01T05:25:00.235Z,993.74
2022-09-01T05:26:05.019Z,993.71
2022-09-01T05:27:03.682Z,993.74
2022-09-01T05:28:05.441Z,993.76
2022-09-01T05:29:07.162Z,993.78
2022-09-01T05:30:08.865Z,993.75
2022-09-01T05:31:10.619Z,993.8
2022-09-01T05:32:12.320Z,993.78
2022-09-01T05:33:14.054Z,993.79
2022-09-01T05:34:15.761Z,993.76
2022-09-01T05:35:17.486Z,993.8
2022-09-01T05:36:19.217Z,993.77
2022-09-01T05:37:20.943Z,993.79
2022-09-01T05:38:22.662Z,993.82
2022-09-01T05:39:24.526Z,993.83
2022-09-01T05:40:26.183Z,993.83
2022-09-01T05:41:27.888Z,993.83
2022-09-01T05:42:29.602Z,993.87
2022-09-01T05:43:31.325Z,993.83
2022-09-01T05:44:33.013Z,993.78
2022-09-01T05:45:56.325Z,993.8
2022-09-01T05:46:36.539Z,993.8
2022-09-01T05:47:38.196Z,993.76
2022-09-01T05:48:40.233Z,993.77
2022-09-01T05:49:41.656Z,993.76
2022-09-01T05:50:43.391Z,993.77
2022-09-01T05:51:46.050Z,993.79
2022-09-01T05:52:16.219Z,993.76
2022-09-01T05:53:17.729Z,993.76
2022-09-01T05:54:19.401Z,993.81
2022-09-01T05:55:21.253Z,993.85
2022-09-01T05:56:22.860Z,993.82
2022-09-01T05:57:34.333Z,993.86
2022-09-01T05:58:26.696Z,993.87
2022-09-01T05:59:28.041Z,993.81
2022-09-01T06:00:29.756Z,993.81
2022-09-01T06:01:31.517Z,993.79
2022-09-01T06:02:33.310Z,993.78
2022-09-01T06:03:38.524Z,993.8
2022-09-01T06:04:36.651Z,993.78
2022-09-01T06:05:38.375Z,993.78
2022-09-01T06:07:01.824Z,993.78
2022-09-01T06:07:41.830Z,993.75
2022-09-01T06:08:46.716Z,993.81
2022-09-01T06:09:45.299Z,993.78
2022-09-01T06:10:47.010Z,993.8
2022-09-01T06:11:48.739Z,993.84
2022-09-01T06:12:50.469Z,993.83
2022-09-01T06:13:55.254Z,993.81
2022-09-01T06:14:53.910Z,993.86
2022-09-01T06:15:55.697Z,993.86
2022-09-01T06:16:57.367Z,993.79
2022-09-01T06:17:59.093Z,993.86
2022-09-01T06:19:00.815Z,993.91
2022-09-01T06:20:02.535Z,993.88
2022-09-01T06:21:04.333Z,993.87
2022-09-01T06:22:06.019Z,993.91
2022-09-01T06:23:07.709Z,993.87
2022-09-01T06:24:09.459Z,993.89
2022-09-01T06:25:11.161Z,993.9
2022-09-01T06:26:12.896Z,993.88
2022-09-01T06:27:14.622Z,993.91
2022-09-01T06:28:16.340Z,993.89
2022-09-01T06:29:18.063Z,993.9
2022-09-01T06:30:23.527Z,993.86
2022-09-01T06:31:21.612Z,993.93
2022-09-01T06:32:23.239Z,993.91
2022-09-01T06:33:25.014Z,993.97
2022-09-01T06:34:26.698Z,993.91
2022-09-01T06:35:28.416Z,993.93
2022-09-01T06:36:34.877Z,993.92
2022-09-01T06:38:20.868Z,993.92
2022-09-01T06:39:22.634Z,993.93
2022-09-01T06:40:24.363Z,993.91
2022-09-01T06:41:26.048Z,993.95
2022-09-01T06:42:27.772Z,993.97
2022-09-01T06:43:29.503Z,993.92
2022-09-01T06:44:31.233Z,993.93
2022-09-01T06:45:32.944Z,993.94
2022-09-01T06:46:34.749Z,993.95
2022-09-01T06:47:36.403Z,993.96
2022-09-01T06:48:38.125Z,993.96
2022-09-01T06:49:39.857Z,993.96
2022-09-01T06:51:43.375Z,993.98
2022-09-01T06:53:46.855Z,993.91
2022-09-01T06:54:48.485Z,993.89
2022-09-01T06:55:50.225Z,993.98
2022-09-01T06:56:53.385Z,993.99
2022-09-01T06:58:07.067Z,993.92
2022-09-01T06:58:55.384Z,993.97
2022-09-01T06:59:57.108Z,994
2022-09-01T07:00:58.858Z,993.97
2022-09-01T07:02:02.340Z,993.99
2022-09-01T07:03:02.350Z,993.99
2022-09-01T07:04:04.069Z,994
2022-09-01T07:05:05.728Z,994.03
2022-09-01T07:06:07.455Z,994.04
2022-09-01T07:08:10.892Z,994.08
2022-09-01T07:10:22.758Z,994.09
2022-09-01T07:11:20.276Z,994.1
2022-09-01T07:13:19.525Z,994.1
2022-09-01T07:14:21.352Z,994.09
2022-09-01T07:16:35.523Z,994.14
2022-09-01T07:17:26.417Z,994.14
2022-09-01T07:18:28.533Z,994.16
2022-09-01T07:19:48.801Z,994.16
2022-09-01T07:20:31.619Z,994.16
2022-09-01T07:21:39.412Z,994.18
2022-09-01T07:22:35.721Z,994.18
2022-09-01T07:24:08.058Z,994.19
2022-09-01T07:24:38.548Z,994.18
2022-09-01T07:26:00.533Z,994.18
2022-09-01T07:27:07.262Z,994.2
2022-09-01T07:28:00.396Z,994.19
2022-09-01T07:29:01.303Z,994.24
2022-09-01T07:30:02.633Z,994.21
2022-09-01T07:34:38.593Z,994.19
2022-09-01T07:35:11.715Z,994.2
2022-09-01T07:36:28.997Z,994.22
2022-09-01T07:38:04.343Z,994.16
2022-09-01T07:39:48.814Z,994.24
2022-09-01T07:42:31.191Z,994.06
2022-09-01T07:43:35.350Z,994.27
2022-09-01T07:44:37.031Z,994.29
2022-09-01T07:45:47.265Z,994.28
2022-09-01T07:46:40.551Z,994.27
2022-09-01T07:47:53.817Z,994.24
2022-09-01T07:49:03.439Z,994.25
2022-09-01T07:50:11.502Z,994.28
2022-09-01T07:51:49.145Z,994.31
2022-09-01T07:52:50.827Z,994.3
2022-09-01T07:53:52.547Z,994.34
2022-09-01T07:54:54.271Z,994.31
2022-09-01T07:55:56.018Z,994.29
2022-09-01T07:56:57.738Z,994.29
2022-09-01T07:57:59.452Z,994.24
2022-09-01T07:59:01.177Z,994.29
2022-09-01T08:00:02.914Z,994.32
2022-09-01T08:01:04.729Z,994.29
2022-09-01T08:02:06.450Z,994.3
2022-09-01T08:03:08.180Z,994.29
2022-09-01T08:04:09.820Z,994.28
2022-09-01T08:05:11.567Z,994.32
2022-09-01T08:06:13.259Z,994.32
2022-09-01T08:07:16.046Z,994.33
2022-09-01T08:08:20.431Z,994.35
2022-09-01T08:09:27.414Z,994.33
2022-09-01T08:10:20.511Z,994.35
2022-09-01T08:11:40.018Z,994.37
2022-09-01T08:12:28.918Z,994.32
2022-09-01T08:13:26.023Z,994.36
2022-09-01T08:14:27.060Z,994.33
2022-09-01T08:16:06.366Z,994.35
2022-09-01T08:16:39.404Z,994.37
2022-09-01T08:17:34.806Z,994.35
2022-09-01T08:18:48.203Z,994.34
2022-09-01T08:19:35.731Z,994.37
2022-09-01T08:20:37.469Z,994.39
2022-09-01T08:21:39.201Z,994.4
2022-09-01T08:22:40.911Z,994.4
2022-09-01T08:23:43.257Z,994.45
2022-09-01T08:24:44.337Z,994.38
2022-09-01T08:25:46.090Z,994.42
2022-09-01T08:26:47.885Z,994.4
2022-09-01T08:27:49.560Z,994.42
2022-09-01T08:28:55.425Z,994.43
2022-09-01T08:29:52.970Z,994.43
2022-09-01T08:30:54.770Z,994.37
2022-09-01T08:31:58.529Z,994.41
2022-09-01T08:32:58.188Z,994.4
2022-09-01T08:33:59.876Z,994.42
2022-09-01T08:35:01.633Z,994.41
2022-09-01T08:36:04.540Z,994.4
2022-09-01T08:37:05.082Z,994.4
2022-09-01T08:38:06.811Z,994.38
2022-09-01T08:39:08.501Z,994.44
2022-09-01T08:40:10.324Z,994.42
2022-09-01T08:41:11.943Z,994.42
2022-09-01T08:42:13.683Z,994.4
2022-09-01T08:43:15.727Z,994.38
2022-09-01T08:44:17.160Z,994.39
2022-09-01T08:45:18.875Z,994.43
2022-09-01T08:46:20.621Z,994.42
2022-09-01T08:47:35.440Z,994.43
2022-09-01T08:49:26.862Z,994.39
2022-09-01T08:50:27.312Z,994.43
2022-09-01T08:51:29.070Z,994.41
2022-09-01T08:52:30.803Z,994.4
2022-09-01T08:53:32.829Z,994.44
2022-09-01T08:54:37.428Z,994.46
2022-09-01T08:55:40.286Z,994.45
2022-09-01T08:56:40.602Z,994.46
2022-09-01T08:59:02.738Z,994.47
2022-09-01T09:00:02.996Z,994.42
2022-09-01T09:01:04.785Z,994.39
2022-09-01T09:02:36.543Z,994.46
2022-09-01T09:03:41.503Z,994.44
2022-09-01T09:04:38.756Z,994.44
2022-09-01T09:05:40.494Z,994.41
2022-09-01T09:06:42.255Z,994.39
2022-09-01T09:07:43.922Z,994.39
2022-09-01T09:08:45.694Z,994.42
2022-09-01T09:09:53.668Z,994.43
2022-09-01T09:10:49.117Z,994.39
2022-09-01T09:11:50.852Z,994.41
2022-09-01T09:12:52.632Z,994.36
2022-09-01T09:13:54.334Z,994.37
2022-09-01T09:14:56.065Z,994.4
2022-09-01T09:16:07.844Z,994.42
2022-09-01T09:16:59.532Z,994.41
2022-09-01T09:18:01.258Z,994.41
2022-09-01T09:19:04.221Z,994.4
2022-09-01T09:20:04.731Z,994.4
2022-09-01T09:21:06.572Z,994.4
2022-09-01T09:22:08.239Z,994.4
2022-09-01T09:23:09.944Z,994.41
2022-09-01T09:24:11.655Z,994.39
2022-09-01T09:25:13.433Z,994.4
2022-09-01T09:26:16.619Z,994.39
2022-09-01T09:27:16.920Z,994.35
2022-09-01T09:28:18.603Z,994.32
2022-09-01T09:29:20.340Z,994.32
2022-09-01T09:30:22.080Z,994.33
2022-09-01T09:31:23.923Z,994.36
2022-09-01T09:32:44.922Z,994.29
2022-09-01T09:33:51.224Z,994.3
2022-09-01T09:34:29.017Z,994.3
2022-09-01T09:35:31.603Z,994.3
2022-09-01T09:36:32.488Z,994.29
2022-09-01T09:37:36.099Z,994.27
2022-09-01T09:38:36.014Z,994.28
2022-09-01T09:39:37.675Z,994.22
2022-09-01T09:41:06.720Z,994.24
2022-09-01T09:41:41.238Z,994.17
2022-09-01T09:42:42.885Z,994.16
2022-09-01T09:43:47.533Z,994.11
2022-09-01T09:44:46.354Z,994.15
2022-09-01T09:45:48.125Z,994.14
2022-09-01T09:46:52.965Z,994.15
2022-09-01T09:47:54.687Z,994.12
2022-09-01T09:48:56.415Z,994.11
2022-09-01T09:49:58.082Z,994.1
2022-09-01T09:50:59.816Z,994.05
2022-09-01T09:52:01.604Z,994.03
2022-09-01T09:53:03.329Z,994.03
2022-09-01T09:54:05.115Z,993.98
2022-09-01T09:55:06.830Z,993.97
2022-09-01T09:56:08.563Z,993.97
2022-09-01T09:57:10.309Z,993.97
2022-09-01T09:58:12.028Z,994
2022-09-01T09:59:13.754Z,994.02
2022-09-01T10:00:15.466Z,994
2022-09-01T10:01:17.926Z,994.01
2022-09-01T10:02:18.971Z,994.02
2022-09-01T10:03:20.796Z,993.98
2022-09-01T10:04:22.438Z,993.98
2022-09-01T10:05:24.164Z,993.98
2022-09-01T10:06:25.898Z,994
2022-09-01T10:07:27.617Z,993.91
2022-09-01T10:08:29.383Z,993.97
2022-09-01T10:09:31.075Z,993.93
2022-09-01T10:10:32.829Z,993.95
2022-09-01T10:11:35.525Z,993.91
2022-09-01T10:12:36.314Z,993.94
2022-09-01T10:13:51.359Z,993.9
2022-09-01T10:14:53.482Z,993.84
2022-09-01T10:15:54.146Z,993.87
2022-09-01T10:16:55.960Z,993.93
2022-09-01T10:18:59.369Z,993.88
2022-09-01T10:20:01.099Z,993.82
2022-09-01T10:21:07.801Z,993.83
2022-09-01T10:22:04.560Z,993.87
2022-09-01T10:23:06.291Z,993.83
2022-09-01T10:24:21.119Z,993.86
2022-09-01T10:25:10.493Z,993.88
2022-09-01T10:26:11.494Z,993.79
2022-09-01T10:27:15.414Z,993.86
2022-09-01T10:28:20.951Z,993.91
2022-09-01T10:29:16.709Z,993.86
2022-09-01T10:30:19.506Z,993.8
2022-09-01T10:31:20.324Z,993.81
2022-09-01T10:32:35.257Z,993.82
2022-09-01T10:33:23.694Z,993.77
2022-09-01T10:34:26.732Z,993.8
2022-09-01T10:35:27.099Z,993.74
2022-09-01T10:36:28.877Z,993.76
2022-09-01T10:37:30.615Z,993.79
2022-09-01T10:38:32.303Z,993.8
2022-09-01T10:39:40.783Z,993.82
2022-09-01T10:40:35.891Z,993.77
2022-09-01T10:41:39.002Z,993.79
2022-09-01T10:42:39.274Z,993.8
2022-09-01T10:43:40.991Z,993.8
2022-09-01T10:44:42.714Z,993.84
2022-09-01T10:45:44.592Z,993.76
2022-09-01T10:46:50.179Z,993.84
2022-09-01T10:47:47.971Z,993.82
2022-09-01T10:48:56.045Z,993.84
2022-09-01T10:49:51.418Z,993.79
2022-09-01T10:50:53.114Z,993.83
2022-09-01T10:51:56.733Z,993.84
2022-09-01T10:52:56.623Z,993.82
2022-09-01T10:54:02.088Z,993.83
2022-09-01T10:55:00.081Z,993.9
2022-09-01T10:56:02.716Z,993.84
2022-09-01T10:57:08.761Z,993.8
2022-09-01T10:58:11.464Z,993.78
2022-09-01T10:59:35.692Z,993.76
2022-09-01T11:00:36.317Z,993.75
2022-09-01T11:01:11.100Z,993.7
2022-09-01T11:02:28.418Z,993.71
2022-09-01T11:03:30.609Z,993.69
2022-09-01T11:04:15.817Z,993.7
2022-09-01T11:05:17.561Z,993.67
2022-09-01T11:06:19.146Z,993.68
2022-09-01T11:07:44.562Z,993.7
2022-09-01T11:08:22.703Z,993.67
2022-09-01T11:09:24.342Z,993.72
2022-09-01T11:10:33.115Z,993.66
2022-09-01T11:11:27.805Z,993.61
2022-09-01T11:12:30.178Z,993.67
2022-09-01T11:13:31.300Z,993.67
2022-09-01T11:14:33.023Z,993.64
2022-09-01T11:15:35.462Z,993.65
2022-09-01T11:16:48.136Z,993.62
2022-09-01T11:17:38.335Z,993.63
2022-09-01T11:18:39.947Z,993.61
2022-09-01T11:19:41.740Z,993.61
2022-09-01T11:20:43.902Z,993.59
2022-09-01T11:21:45.181Z,993.55
2022-09-01T11:22:46.902Z,993.63
2022-09-01T11:23:48.601Z,993.54
2022-09-01T11:24:58.155Z,993.59
2022-09-01T11:26:19.250Z,993.52
2022-09-01T11:26:53.868Z,993.6
2022-09-01T11:28:29.299Z,993.57
2022-09-01T11:29:31.004Z,993.52
2022-09-01T11:30:32.781Z,993.51
2022-09-01T11:31:34.568Z,993.56
2022-09-01T11:33:51.801Z,993.52
2022-09-01T11:34:52.194Z,993.42
2022-09-01T11:35:53.878Z,993.46
2022-09-01T11:36:55.700Z,993.49
2022-09-01T11:37:57.343Z,993.45
2022-09-01T11:38:59.082Z,993.42
2022-09-01T11:40:00.825Z,993.36
2022-09-01T11:41:07.534Z,993.35
2022-09-01T11:42:04.728Z,993.39
2022-09-01T11:43:06.022Z,993.37
2022-09-01T11:44:07.771Z,993.37
2022-09-01T11:45:12.784Z,993.36
2022-09-01T11:46:14.637Z,993.39
2022-09-01T11:48:27.510Z,993.35
2022-09-01T11:49:29.073Z,993.36
2022-09-01T11:50:30.760Z,993.35
2022-09-01T11:51:32.530Z,993.32
2022-09-01T11:52:35.314Z,993.32
2022-09-01T11:53:36.018Z,993.31
2022-09-01T11:54:37.703Z,993.31
2022-09-01T11:55:39.442Z,993.33
2022-09-01T11:56:41.213Z,993.29
2022-09-01T11:57:42.914Z,993.29
2022-09-01T11:58:44.667Z,993.31
2022-09-01T11:59:46.392Z,993.27
2022-09-01T12:00:48.155Z,993.27
2022-09-01T12:01:49.955Z,993.27
2022-09-01T12:02:51.766Z,993.2
2022-09-01T12:03:53.371Z,993.21
2022-09-01T12:04:55.081Z,993.17
2022-09-01T12:07:11.088Z,993.19
2022-09-01T12:08:11.874Z,993.21
2022-09-01T12:09:13.582Z,993.18
2022-09-01T12:10:15.367Z,993.13
2022-09-01T12:11:17.121Z,993.14
2022-09-01T12:12:18.905Z,993.14
2022-09-01T12:13:20.712Z,993.11
2022-09-01T12:14:22.323Z,993.08
2022-09-01T12:15:24.142Z,993.07
2022-09-01T12:16:25.851Z,993.04
2022-09-01T12:17:27.552Z,993.13
2022-09-01T12:18:29.281Z,993.05
2022-09-01T12:19:31.009Z,993.07
2022-09-01T12:20:58.427Z,993.06
2022-09-01T12:22:00.180Z,993.03
2022-09-01T12:23:01.896Z,993.04
2022-09-01T12:24:03.701Z,993.02
2022-09-01T12:25:06.547Z,992.95
2022-09-01T12:26:07.126Z,993
2022-09-01T12:27:08.813Z,992.96
2022-09-01T12:28:12.004Z,992.99
2022-09-01T12:29:12.285Z,992.95
2022-09-01T12:30:15.942Z,992.97
2022-09-01T12:31:21.038Z,992.93
2022-09-01T12:32:22.671Z,992.92
2022-09-01T12:33:24.771Z,992.89
2022-09-01T12:34:26.148Z,992.92
2022-09-01T12:35:27.911Z,992.91
2022-09-01T12:36:31.079Z,992.95
2022-09-01T12:37:31.306Z,992.96
2022-09-01T12:38:33.038Z,992.95
2022-09-01T12:39:35.836Z,992.95
2022-09-01T12:40:36.574Z,992.91
2022-09-01T12:41:39.096Z,992.9
2022-09-01T12:42:44.172Z,992.89
2022-09-01T12:43:41.772Z,992.89
2022-09-01T12:44:43.442Z,992.87
2022-09-01T12:45:45.393Z,992.9
2022-09-01T12:46:46.984Z,992.93
2022-09-01T12:47:50.398Z,992.85
2022-09-01T12:48:50.399Z,992.75
2022-09-01T12:49:52.414Z,992.82
2022-09-01T12:50:55.972Z,992.85
2022-09-01T12:51:57.231Z,992.75
2022-09-01T12:52:57.388Z,992.78
2022-09-01T12:53:59.088Z,992.74
2022-09-01T12:55:00.821Z,992.73
2022-09-01T12:56:05.556Z,992.73
2022-09-01T12:57:04.255Z,992.79
2022-09-01T12:58:37.006Z,992.75
2022-09-01T12:59:38.771Z,992.77
2022-09-01T13:00:40.660Z,992.77
2022-09-01T13:01:42.403Z,992.8
2022-09-01T13:02:44.142Z,992.77
2022-09-01T13:03:45.638Z,992.71
2022-09-01T13:04:47.768Z,992.72
2022-09-01T13:05:49.153Z,992.71
2022-09-01T13:06:50.864Z,992.7
2022-09-01T13:07:52.817Z,992.69
2022-09-01T13:08:54.318Z,992.58
2022-09-01T13:09:56.124Z,992.59
2022-09-01T13:10:57.805Z,992.58
2022-09-01T13:12:07.439Z,992.58
2022-09-01T13:13:01.260Z,992.59
2022-09-01T13:14:03.036Z,992.61
2022-09-01T13:15:04.825Z,992.59
2022-09-01T13:16:06.765Z,992.64